createdAt,value
2022-08-20T00:01:04.849Z,97426.53
2022-08-20T00:03:36.135Z,97423.88
2022-08-20T00:06:05.051Z,97418.06
2022-08-20T00:08:32.080Z,97413.44
2022-08-20T00:10:59.318Z,97419.91
2022-08-20T00:13:33.371Z,97417.44
2022-08-20T00:16:00.035Z,97421.28
2022-08-20T00:18:27.192Z,97421.16
2022-08-20T00:20:56.451Z,97415.75
2022-08-20T00:23:24.518Z,97418.81
2022-08-20T00:25:51.743Z,97412.66
2022-08-20T00:28:18.943Z,97414.78
2022-08-20T00:30:46.850Z,97406.81
2022-08-20T00:33:21.433Z,97417.56
2022-08-20T00:35:51.930Z,97420.19
2022-08-20T00:38:19.572Z,97410.63
2022-08-20T00:40:57.866Z,97419.25
2022-08-20T00:43:35.847Z,97420.00
2022-08-20T00:46:08.586Z,97418.91
2022-08-20T00:48:38.026Z,97422.00
2022-08-20T00:51:08.976Z,97423.19
2022-08-20T00:53:37.492Z,97419.34
2022-08-20T00:56:06.701Z,97422.44
2022-08-20T00:58:33.971Z,97417.50
2022-08-20T01:01:00.818Z,97419.22
2022-08-20T01:03:27.497Z,97426.91
2022-08-20T01:05:53.994Z,97423.53
2022-08-20T01:08:24.641Z,97421.81
2022-08-20T01:10:53.885Z,97424.09
2022-08-20T01:13:44.162Z,97424.72
2022-08-20T01:16:24.258Z,97422.00
2022-08-20T01:18:52.075Z,97427.22
2022-08-20T01:21:25.570Z,97430.59
2022-08-20T01:24:02.930Z,97422.56
2022-08-20T01:26:35.896Z,97421.03
2022-08-20T01:29:07.687Z,97431.03
2022-08-20T01:31:37.162Z,97416.13
2022-08-20T01:34:07.912Z,97417.66
2022-08-20T01:36:41.907Z,97415.31
2022-08-20T01:39:17.047Z,97419.97
2022-08-20T01:42:09.615Z,97413.00
2022-08-20T01:44:38.745Z,97414.25
2022-08-20T01:47:16.464Z,97414.25
2022-08-20T01:49:47.295Z,97409.66
2022-08-20T01:52:24.709Z,97408.69
2022-08-20T01:54:51.659Z,97418.25
2022-08-20T01:57:23.699Z,97419.47
2022-08-20T01:59:50.651Z,97418.25
2022-08-20T02:02:17.327Z,97417.31
2022-08-20T02:04:43.831Z,97417.66
2022-08-20T02:07:18.154Z,97420.06
2022-08-20T02:09:45.603Z,97416.53
2022-08-20T02:12:14.375Z,97422.84
2022-08-20T02:14:44.981Z,97421.31
2022-08-20T02:17:12.344Z,97416.72
2022-08-20T02:19:38.798Z,97408.69
2022-08-20T02:22:18.105Z,97418.25
2022-08-20T02:24:44.557Z,97413.28
2022-08-20T02:27:11.489Z,97417.47
2022-08-20T02:29:38.134Z,97404.88
2022-08-20T02:32:24.694Z,97409.34
2022-08-20T02:34:52.935Z,97411.94
2022-08-20T02:37:19.399Z,97411.19
2022-08-20T02:39:46.744Z,97412.53
2022-08-20T02:42:13.375Z,97417.91
2022-08-20T02:44:40.350Z,97421.66
2022-08-20T02:47:07.439Z,97417.97
2022-08-20T02:49:34.932Z,97418.78
2022-08-20T02:52:01.466Z,97421.03
2022-08-20T02:54:29.311Z,97418.47
2022-08-20T02:56:55.999Z,97422.31
2022-08-20T02:59:22.558Z,97411.06
2022-08-20T03:01:59.987Z,97421.34
2022-08-20T03:04:28.974Z,97419.50
2022-08-20T03:06:55.449Z,97416.78
2022-08-20T03:09:21.897Z,97421.06
2022-08-20T03:11:49.325Z,97414.00
2022-08-20T03:14:15.950Z,97409.09
2022-08-20T03:16:43.115Z,97410.28
2022-08-20T03:19:09.588Z,97414.91
2022-08-20T03:21:36.068Z,97417.66
2022-08-20T03:24:02.694Z,97417.94
2022-08-20T03:26:29.172Z,97414.88
2022-08-20T03:28:55.637Z,97413.78
2022-08-20T03:31:22.120Z,97419.03
2022-08-20T03:33:49.033Z,97412.72
2022-08-20T03:36:22.209Z,97412.13
2022-08-20T03:38:56.535Z,97424.59
2022-08-20T03:41:24.385Z,97429.06
2022-08-20T03:43:51.094Z,97430.28
2022-08-20T03:46:22.264Z,97431.94
2022-08-20T03:48:56.358Z,97436.41
2022-08-20T03:51:31.107Z,97428.09
2022-08-20T03:53:58.264Z,97433.63
2022-08-20T03:56:25.574Z,97438.44
2022-08-20T03:58:52.869Z,97438.09
2022-08-20T04:01:46.377Z,97435.19
2022-08-20T04:04:06.299Z,97441.50
2022-08-20T04:06:39.413Z,97449.38
2022-08-20T04:09:07.031Z,97449.03
2022-08-20T04:11:37.560Z,97454.91
2022-08-20T04:14:04.865Z,97447.81
2022-08-20T04:16:33.059Z,97452.44
2022-08-20T04:19:02.471Z,97455.66
2022-08-20T04:21:33.019Z,97457.81
2022-08-20T04:24:01.206Z,97459.78
2022-08-20T04:26:27.846Z,97459.53
2022-08-20T04:28:55.552Z,97469.03
2022-08-20T04:31:32.994Z,97471.84
2022-08-20T04:34:04.382Z,97467.53
2022-08-20T04:36:31.143Z,97479.09
2022-08-20T04:38:57.616Z,97472.78
2022-08-20T04:41:24.538Z,97482.63
2022-08-20T04:43:55.941Z,97473.09
2022-08-20T04:46:25.916Z,97480.78
2022-08-20T04:48:52.994Z,97471.88
2022-08-20T04:51:22.896Z,97478.34
2022-08-20T04:53:52.102Z,97480.03
2022-08-20T04:56:25.999Z,97483.56
2022-08-20T04:58:55.012Z,97482.94
2022-08-20T05:01:23.755Z,97488.47
2022-08-20T05:03:51.292Z,97490.00
2022-08-20T05:06:18.797Z,97488.19
2022-08-20T05:08:45.744Z,97487.72
2022-08-20T05:11:33.692Z,97494.03
2022-08-20T05:14:01.006Z,97492.31
2022-08-20T05:16:27.462Z,97488.78
2022-08-20T05:18:53.922Z,97488.47
2022-08-20T05:21:21.572Z,97490.31
2022-08-20T05:23:49.366Z,97499.25
2022-08-20T05:26:16.333Z,97494.31
2022-08-20T05:28:53.979Z,97498.13
2022-08-20T05:31:32.317Z,97495.53
2022-08-20T05:34:09.751Z,97495.25
2022-08-20T05:36:39.668Z,97499.25
2022-08-20T05:39:06.468Z,97498.00
2022-08-20T05:41:32.990Z,97516.91
2022-08-20T05:44:01.309Z,97509.97
2022-08-20T05:46:31.561Z,97507.53
2022-08-20T05:48:59.493Z,97508.16
2022-08-20T05:51:27.825Z,97510.03
2022-08-20T05:53:54.268Z,97515.84
2022-08-20T05:56:26.673Z,97509.38
2022-08-20T05:58:53.546Z,97520.28
2022-08-20T06:01:20.087Z,97521.06
2022-08-20T06:04:05.224Z,97518.34
2022-08-20T06:06:44.707Z,97516.78
2022-08-20T06:09:13.648Z,97514.63
2022-08-20T06:11:40.127Z,97512.16
2022-08-20T06:14:06.633Z,97522.00
2022-08-20T06:16:33.314Z,97522.31
2022-08-20T06:18:59.886Z,97520.34
2022-08-20T06:21:29.798Z,97524.19
2022-08-20T06:23:57.267Z,97524.47
2022-08-20T06:26:30.004Z,97525.41
2022-08-20T06:29:00.319Z,97530.00
2022-08-20T06:31:27.610Z,97523.09
2022-08-20T06:33:54.508Z,97530.47
2022-08-20T06:36:21.394Z,97529.09
2022-08-20T06:38:48.112Z,97522.03
2022-08-20T06:41:14.734Z,97530.34
2022-08-20T06:43:41.272Z,97533.09
2022-08-20T06:46:08.302Z,97528.47
2022-08-20T06:48:35.479Z,97530.19
2022-08-20T06:51:01.932Z,97529.09
2022-08-20T06:53:29.302Z,97530.66
2022-08-20T06:55:58.939Z,97529.72
2022-08-20T06:58:35.761Z,97533.88
2022-08-20T07:01:09.642Z,97538.00
2022-08-20T07:03:42.215Z,97535.25
2022-08-20T07:06:22.596Z,97535.25
2022-08-20T07:08:49.286Z,97541.53
2022-08-20T07:11:15.826Z,97550.59
2022-08-20T07:13:42.350Z,97552.16
2022-08-20T07:16:09.390Z,97549.72
2022-08-20T07:18:36.452Z,97550.59
2022-08-20T07:21:03.627Z,97548.00
2022-08-20T07:23:31.729Z,97552.59
2022-08-20T07:25:58.432Z,97553.72
2022-08-20T07:28:28.823Z,97553.38
2022-08-20T07:31:16.020Z,97550.59
2022-08-20T07:33:44.385Z,97549.25
2022-08-20T07:36:12.617Z,97558.31
2022-08-20T07:38:39.379Z,97562.31
2022-08-20T07:41:09.880Z,97561.38
2022-08-20T07:43:36.610Z,97567.09
2022-08-20T07:46:07.664Z,97565.97
2022-08-20T07:48:36.803Z,97570.16
2022-08-20T07:51:05.237Z,97572.63
2022-08-20T07:53:35.892Z,97567.22
2022-08-20T07:56:06.097Z,97573.50
2022-08-20T07:58:35.321Z,97576.63
2022-08-20T08:01:01.939Z,97576.63
2022-08-20T08:03:40.603Z,97578.94
2022-08-20T08:06:28.706Z,97565.56
2022-08-20T08:09:11.728Z,97576.94
2022-08-20T08:11:46.501Z,97572.75
2022-08-20T08:14:14.927Z,97573.84
2022-08-20T08:16:45.662Z,97582.94
2022-08-20T08:19:15.218Z,97587.53
2022-08-20T08:21:41.933Z,97586.00
2022-08-20T08:24:08.428Z,97587.69
2022-08-20T08:26:34.886Z,97588.47
2022-08-20T08:29:02.539Z,97582.00
2022-08-20T08:31:29.074Z,97584.78
2022-08-20T08:33:55.652Z,97587.53
2022-08-20T08:36:22.251Z,97592.78
2022-08-20T08:38:48.819Z,97585.38
2022-08-20T08:41:29.365Z,97580.44
2022-08-20T08:44:04.694Z,97593.38
2022-08-20T08:46:35.566Z,97592.16
2022-08-20T08:49:02.685Z,97593.69
2022-08-20T08:51:37.986Z,97596.41
2022-08-20T08:54:07.175Z,97593.38
2022-08-20T08:56:35.040Z,97599.19
2022-08-20T08:59:06.093Z,97602.31
2022-08-20T09:01:54.542Z,97596.94
2022-08-20T09:04:23.179Z,97588.28
2022-08-20T09:06:53.558Z,97604.78
2022-08-20T09:09:24.983Z,97602.13
2022-08-20T09:11:55.962Z,97598.78
2022-08-20T09:14:25.043Z,97609.38
2022-08-20T09:16:53.554Z,97604.47
2022-08-20T09:19:20.739Z,97605.53
2022-08-20T09:21:47.355Z,97606.94
2022-08-20T09:24:13.982Z,97606.59
2022-08-20T09:26:40.668Z,97602.00
2022-08-20T09:29:07.303Z,97603.94
2022-08-20T09:31:33.840Z,97605.66
2022-08-20T09:34:00.334Z,97604.13
2022-08-20T09:36:31.550Z,97609.97
2022-08-20T09:38:59.497Z,97602.88
2022-08-20T09:41:26.030Z,97602.25
2022-08-20T09:43:52.843Z,97603.47
2022-08-20T09:46:19.374Z,97601.59
2022-08-20T09:48:53.394Z,97610.03
2022-08-20T09:51:20.018Z,97600.91
2022-08-20T09:53:46.956Z,97616.13
2022-08-20T09:56:13.770Z,97613.81
2022-08-20T09:58:52.947Z,97609.94
2022-08-20T10:01:22.095Z,97601.28
2022-08-20T10:03:50.212Z,97606.84
2022-08-20T10:06:19.859Z,97612.03
2022-08-20T10:08:47.598Z,97607.25
2022-08-20T10:11:14.135Z,97615.47
2022-08-20T10:13:40.755Z,97606.66
2022-08-20T10:16:07.314Z,97615.34
2022-08-20T10:18:35.483Z,97604.19
2022-08-20T10:21:02.214Z,97611.91
2022-08-20T10:23:28.792Z,97603.03
2022-08-20T10:25:55.287Z,97605.31
2022-08-20T10:28:21.741Z,97596.91
2022-08-20T10:30:48.277Z,97598.81
2022-08-20T10:33:14.821Z,97593.38
2022-08-20T10:35:41.338Z,97592.97
2022-08-20T10:38:07.886Z,97589.75
2022-08-20T10:40:34.486Z,97599.22
2022-08-20T10:43:01.072Z,97588.03
2022-08-20T10:45:27.664Z,97594.44
2022-08-20T10:47:54.189Z,97601.66
2022-08-20T10:50:20.947Z,97598.22
2022-08-20T10:52:47.968Z,97597.81
2022-08-20T10:55:14.592Z,97598.78
2022-08-20T10:57:43.393Z,97602.78
2022-08-20T11:00:14.143Z,97597.41
2022-08-20T11:02:40.700Z,97593.66
2022-08-20T11:05:08.387Z,97592.53
2022-08-20T11:08:00.233Z,97595.97
2022-08-20T11:10:29.226Z,97589.81
2022-08-20T11:12:55.940Z,97589.78
2022-08-20T11:15:22.585Z,97590.09
2022-08-20T11:17:49.134Z,97601.44
2022-08-20T11:20:18.235Z,97589.81
2022-08-20T11:22:44.867Z,97590.59
2022-08-20T11:25:11.955Z,97581.06
2022-08-20T11:27:41.451Z,97580.66
2022-08-20T11:30:11.355Z,97578.78
2022-08-20T11:32:37.982Z,97581.75
2022-08-20T11:35:24.373Z,97576.81
2022-08-20T11:37:53.544Z,97580.03
2022-08-20T11:40:20.823Z,97577.81
2022-08-20T11:43:12.596Z,97571.81
2022-08-20T11:45:37.567Z,97567.97
2022-08-20T11:48:05.220Z,97567.78
2022-08-20T11:50:32.198Z,97568.16
2022-08-20T11:52:58.952Z,97567.25
2022-08-20T11:55:29.987Z,97570.41
2022-08-20T11:57:59.638Z,97571.94
2022-08-20T12:00:31.981Z,97565.16
2022-08-20T12:03:01.048Z,97563.28
2022-08-20T12:05:29.580Z,97564.41
2022-08-20T12:07:56.718Z,97556.72
2022-08-20T12:10:24.527Z,97563.34
2022-08-20T12:12:51.508Z,97561.66
2022-08-20T12:15:18.006Z,97553.59
2022-08-20T12:17:44.835Z,97548.31
2022-08-20T12:20:14.181Z,97562.97
2022-08-20T12:22:41.244Z,97564.34
2022-08-20T12:25:09.215Z,97570.03
2022-08-20T12:27:37.307Z,97571.69
2022-08-20T12:30:11.722Z,97568.09
2022-08-20T12:32:38.329Z,97558.75
2022-08-20T12:35:07.024Z,97554.91
2022-08-20T12:37:33.743Z,97563.81
2022-08-20T12:40:02.152Z,97565.00
2022-08-20T12:42:30.619Z,97568.91
2022-08-20T12:44:58.597Z,97567.97
2022-08-20T12:47:28.268Z,97563.66
2022-08-20T12:49:58.015Z,97565.88
2022-08-20T12:52:25.586Z,97565.88
2022-08-20T12:54:52.255Z,97562.63
2022-08-20T12:57:32.192Z,97557.81
2022-08-20T13:00:04.969Z,97562.81
2022-08-20T13:02:31.606Z,97569.72
2022-08-20T13:05:02.465Z,97560.81
2022-08-20T13:07:31.618Z,97562.28
2022-08-20T13:09:59.421Z,97562.22
2022-08-20T13:12:25.911Z,97556.22
2022-08-20T13:14:52.530Z,97549.63
2022-08-20T13:17:19.695Z,97543.00
2022-08-20T13:19:53.835Z,97541.16
2022-08-20T13:22:20.347Z,97539.72
2022-08-20T13:24:46.910Z,97545.88
2022-08-20T13:27:16.649Z,97552.59
2022-08-20T13:29:55.169Z,97556.22
2022-08-20T13:32:25.260Z,97564.66
2022-08-20T13:34:51.702Z,97564.59
2022-08-20T13:37:25.551Z,97569.97
2022-08-20T13:39:54.234Z,97564.16
2022-08-20T13:48:30.472Z,97549.00
2022-08-20T13:50:56.926Z,97542.50
2022-08-20T13:53:24.582Z,97549.78
2022-08-20T13:55:51.343Z,97562.19
2022-08-20T13:58:18.382Z,97566.38
2022-08-20T14:00:45.960Z,97563.50
2022-08-20T14:03:12.506Z,97574.56
2022-08-20T14:05:41.068Z,97566.06
2022-08-20T14:08:26.923Z,97570.47
2022-08-20T14:10:54.087Z,97567.22
2022-08-20T14:13:22.839Z,97561.38
2022-08-20T14:15:49.543Z,97573.06
2022-08-20T14:18:16.133Z,97564.41
2022-08-20T14:20:45.467Z,97557.84
2022-08-20T14:23:13.213Z,97541.88
2022-08-20T14:25:39.723Z,97556.09
2022-08-20T14:28:18.249Z,97559.91
2022-08-20T14:30:46.737Z,97560.69
2022-08-20T14:33:19.294Z,97563.03
2022-08-20T14:35:45.724Z,97568.38
2022-08-20T14:38:12.173Z,97563.44
2022-08-20T14:40:38.672Z,97567.72
2022-08-20T14:43:05.158Z,97567.69
2022-08-20T14:45:32.283Z,97572.75
2022-08-20T14:47:59.002Z,97571.06
2022-08-20T14:50:34.214Z,97570.78
2022-08-20T14:53:01.732Z,97580.03
2022-08-20T14:55:31.555Z,97592.06
2022-08-20T14:57:58.905Z,97583.44
2022-08-20T15:00:29.163Z,97586.81
2022-08-20T15:02:56.476Z,97589.56
2022-08-20T15:05:23.897Z,97594.53
2022-08-20T15:07:51.995Z,97579.44
2022-08-20T15:10:32.743Z,97583.75
2022-08-20T15:12:59.534Z,97598.69
2022-08-20T15:15:26.943Z,97589.28
2022-08-20T15:17:57.735Z,97585.06
2022-08-20T15:20:27.426Z,97583.38
2022-08-20T15:22:54.930Z,97584.53
2022-08-20T15:25:24.483Z,97589.25
2022-08-20T15:27:51.249Z,97592.16
2022-08-20T15:30:21.803Z,97595.38
2022-08-20T15:32:54.166Z,97603.22
2022-08-20T15:35:24.571Z,97592.31
2022-08-20T15:37:54.821Z,97594.44
2022-08-20T15:40:27.604Z,97578.22
2022-08-20T15:42:55.190Z,97579.34
2022-08-20T15:45:22.323Z,97584.97
2022-08-20T15:48:08.005Z,97592.56
2022-08-20T15:50:55.618Z,97598.38
2022-08-20T15:53:30.246Z,97595.91
2022-08-20T15:56:21.561Z,97593.78
2022-08-20T15:59:23.851Z,97610.69
2022-08-20T16:02:02.400Z,97608.50
2022-08-20T16:05:04.245Z,97617.97
2022-08-20T16:08:20.217Z,97612.28
2022-08-20T16:11:20.135Z,97623.06
2022-08-20T16:13:55.236Z,97614.06
2022-08-20T16:16:32.191Z,97610.78
2022-08-20T16:19:00.537Z,97607.81
2022-08-20T16:21:33.488Z,97611.34
2022-08-20T16:24:00.907Z,97607.34
2022-08-20T16:27:06.607Z,97610.75
2022-08-20T16:29:54.172Z,97610.72
2022-08-20T16:32:33.998Z,97610.06
2022-08-20T16:35:27.655Z,97611.00
2022-08-20T16:38:03.648Z,97618.38
2022-08-20T16:40:56.915Z,97620.00
2022-08-20T16:43:31.634Z,97630.63
2022-08-20T16:46:03.354Z,97630.47
2022-08-20T16:48:38.791Z,97623.38
2022-08-20T16:51:19.881Z,97632.63
2022-08-20T16:53:46.620Z,97630.91
2022-08-20T16:56:13.115Z,97633.25
2022-08-20T16:58:39.581Z,97643.28
2022-08-20T17:01:13.796Z,97640.00
2022-08-20T17:03:50.270Z,97640.03
2022-08-20T17:06:31.977Z,97633.97
2022-08-20T17:08:58.958Z,97633.22
2022-08-20T17:11:31.879Z,97636.94
2022-08-20T17:14:13.604Z,97627.47
2022-08-20T17:16:44.132Z,97627.66
2022-08-20T17:19:20.346Z,97623.16
2022-08-20T17:21:50.552Z,97631.63
2022-08-20T17:24:22.757Z,97631.66
2022-08-20T17:27:01.754Z,97632.16
2022-08-20T17:29:31.408Z,97631.09
2022-08-20T17:32:10.131Z,97629.19
2022-08-20T17:35:04.474Z,97633.41
2022-08-20T17:37:35.023Z,97632.94
2022-08-20T17:40:10.945Z,97628.34
2022-08-20T17:43:01.399Z,97631.72
2022-08-20T17:45:44.583Z,97628.94
2022-08-20T17:48:17.136Z,97634.47
2022-08-20T17:50:44.082Z,97631.13
2022-08-20T17:53:23.720Z,97633.28
2022-08-20T17:55:54.824Z,97634.50
2022-08-20T17:58:35.646Z,97632.84
2022-08-20T18:01:02.126Z,97635.16
2022-08-20T18:03:29.109Z,97639.47
2022-08-20T18:06:12.947Z,97640.06
2022-08-20T18:09:07.830Z,97646.34
2022-08-20T18:11:48.550Z,97642.31
2022-08-20T18:14:35.599Z,97647.88
2022-08-20T18:17:13.205Z,97657.28
2022-08-20T18:19:48.748Z,97652.66
2022-08-20T18:22:29.293Z,97650.38
2022-08-20T18:25:24.154Z,97647.16
2022-08-20T18:27:56.130Z,97655.66
2022-08-20T18:30:25.953Z,97655.19
2022-08-20T18:33:03.230Z,97655.94
2022-08-20T18:35:45.736Z,97660.41
2022-08-20T18:38:35.145Z,97655.47
2022-08-20T18:41:09.405Z,97649.81
2022-08-20T18:43:36.595Z,97651.16
2022-08-20T18:46:12.788Z,97653.50
2022-08-20T18:48:51.003Z,97645.03
2022-08-20T18:51:21.129Z,97657.06
2022-08-20T18:53:51.873Z,97651.66
2022-08-20T18:56:33.484Z,97656.78
2022-08-20T18:59:09.646Z,97654.00
2022-08-20T19:01:37.840Z,97653.09
2022-08-20T19:04:17.410Z,97657.22
2022-08-20T19:06:48.792Z,97653.09
2022-08-20T19:09:34.426Z,97657.25
2022-08-20T19:12:07.036Z,97654.63
2022-08-20T19:14:55.546Z,97660.63
2022-08-20T19:17:35.654Z,97660.16
2022-08-20T19:20:09.067Z,97655.88
2022-08-20T19:22:38.526Z,97667.88
2022-08-20T19:25:06.399Z,97663.41
2022-08-20T19:27:33.132Z,97662.94
2022-08-20T19:29:59.591Z,97668.19
2022-08-20T19:32:29.910Z,97668.19
2022-08-20T19:35:04.350Z,97675.28
2022-08-20T19:37:50.437Z,97673.72
2022-08-20T19:40:29.193Z,97662.03
2022-08-20T19:42:58.878Z,97668.19
2022-08-20T19:45:37.981Z,97676.81
2022-08-20T19:48:29.250Z,97660.34
2022-08-20T19:51:06.411Z,97657.72
2022-08-20T19:53:35.548Z,97656.16
2022-08-20T19:56:06.365Z,97662.03
2022-08-20T19:58:33.982Z,97654.97
2022-08-20T20:01:02.286Z,97652.50
2022-08-20T20:03:35.394Z,97658.97
2022-08-20T20:06:17.100Z,97657.41
2022-08-20T20:09:24.824Z,97653.72
2022-08-20T20:12:11.620Z,97653.88
2022-08-20T20:14:54.751Z,97657.25
2022-08-20T20:17:26.438Z,97653.06
2022-08-20T20:20:00.142Z,97658.47
2022-08-20T20:22:46.803Z,97658.94
2022-08-20T20:25:13.579Z,97662.94
2022-08-20T20:27:41.141Z,97657.41
2022-08-20T20:30:12.690Z,97649.09
2022-08-20T20:32:44.237Z,97645.09
2022-08-20T20:35:11.234Z,97645.38
2022-08-20T20:37:50.145Z,97653.69
2022-08-20T20:40:35.869Z,97648.16
2022-08-20T20:43:08.782Z,97649.84
2022-08-20T20:45:41.027Z,97647.84
2022-08-20T20:48:33.797Z,97655.53
2022-08-20T20:51:01.281Z,97643.56
2022-08-20T20:53:51.568Z,97645.69
2022-08-20T20:56:28.120Z,97647.22
2022-08-20T20:58:56.110Z,97644.78
2022-08-20T21:01:38.637Z,97646.63
2022-08-20T21:04:09.532Z,97643.38
2022-08-20T21:06:36.470Z,97643.38
2022-08-20T21:09:03.001Z,97642.03
2022-08-20T21:11:29.482Z,97640.78
2022-08-20T21:13:55.973Z,97636.63
2022-08-20T21:16:22.652Z,97644.31
2022-08-20T21:18:49.123Z,97632.94
2022-08-20T21:21:16.122Z,97640.16
2022-08-20T21:23:42.591Z,97641.09
2022-08-20T21:26:09.215Z,97634.16
2022-08-20T21:28:35.919Z,97648.44
2022-08-20T21:31:02.678Z,97641.69
2022-08-20T21:33:29.262Z,97647.56
2022-08-20T21:35:56.990Z,97651.56
2022-08-20T21:38:23.772Z,97646.78
2022-08-20T21:40:50.526Z,97647.69
2022-08-20T21:43:17.199Z,97644.78
2022-08-20T21:45:45.590Z,97642.91
2022-08-20T21:48:16.487Z,97641.84
2022-08-20T21:50:43.669Z,97641.09
2022-08-20T21:53:12.784Z,97638.31
2022-08-20T21:55:40.503Z,97643.06
2022-08-20T21:58:07.545Z,97652.31
2022-08-20T22:00:46.546Z,97648.78
2022-08-20T22:03:15.236Z,97646.94
2022-08-20T22:05:43.609Z,97640.78
2022-08-20T22:08:10.859Z,97647.53
2022-08-20T22:10:38.009Z,97638.63
2022-08-20T22:13:05.346Z,97636.16
2022-08-20T22:18:13.839Z,97639.56
2022-08-20T22:20:40.846Z,97632.47
2022-08-20T22:23:07.546Z,97632.78
2022-08-20T22:25:34.210Z,97632.16
2022-08-20T22:28:00.982Z,97637.72
2022-08-20T22:30:28.501Z,97637.38
2022-08-20T22:33:00.626Z,97629.84
2022-08-20T22:35:27.791Z,97634.31
2022-08-20T22:37:54.373Z,97636.44
2022-08-20T22:40:21.546Z,97629.06
2022-08-20T22:42:48.082Z,97636.31
2022-08-20T22:45:14.889Z,97628.47
2022-08-20T22:47:43.141Z,97640.16
2022-08-20T22:50:12.057Z,97635.25
2022-08-20T22:52:39.507Z,97624.00
2022-08-20T22:55:06.663Z,97624.16
2022-08-20T22:57:34.299Z,97622.59
2022-08-20T23:00:01.098Z,97619.69
2022-08-20T23:02:27.838Z,97623.41
2022-08-20T23:04:54.616Z,97611.69
2022-08-20T23:07:21.154Z,97620.75
2022-08-20T23:09:47.637Z,97616.16
2022-08-20T23:12:14.122Z,97610.00
2022-08-20T23:14:40.623Z,97614.91
2022-08-20T23:17:14.021Z,97616.16
2022-08-20T23:19:41.999Z,97614.63
2022-08-20T23:22:09.243Z,97606.59
2022-08-20T23:24:37.062Z,97612.31
2022-08-20T23:27:06.320Z,97613.38
2022-08-20T23:29:33.207Z,97610.59
2022-08-20T23:31:59.708Z,97613.06
2022-08-20T23:34:26.843Z,97602.00
2022-08-20T23:36:55.341Z,97603.84
2022-08-20T23:39:22.720Z,97602.91
2022-08-20T23:41:49.245Z,97607.84
2022-08-20T23:44:26.521Z,97600.13
2022-08-20T23:47:02.364Z,97598.00
2022-08-20T23:49:29.976Z,97598.88
2022-08-20T23:51:57.868Z,97597.66
2022-08-20T23:54:24.439Z,97595.22
2022-08-20T23:56:50.978Z,97595.81
2022-08-20T23:59:19.918Z,97589.03
